sensor_id;sensor_type;location;lat;lon;timestamp;P1;durP1;ratioP1;P2;durP2;ratioP2
10110;SDS011;5095;49.796;9.934;2023-07-28T00:01:40;4.83;;;2.67;;
10110;SDS011;5095;49.796;9.934;2023-07-28T00:04:06;3.83;;;2.10;;
10110;SDS011;5095;49.796;9.934;2023-07-28T00:06:34;5.60;;;2.60;;
10110;SDS011;5095;49.796;9.934;2023-07-28T00:09:00;3.57;;;2.47;;
10110;SDS011;5095;49.796;9.934;2023-07-28T00:11:26;3.03;;;2.40;;
10110;SDS011;5095;49.796;9.934;2023-07-28T00:13:52;3.57;;;2.23;;
10110;SDS011;5095;49.796;9.934;2023-07-28T00:16:19;2.83;;;2.20;;
10110;SDS011;5095;49.796;9.934;2023-07-28T00:18:45;3.93;;;2.57;;
10110;SDS011;5095;49.796;9.934;2023-07-28T00:21:11;2.97;;;2.40;;
10110;SDS011;5095;49.796;9.934;2023-07-28T00:23:37;3.53;;;2.60;;
10110;SDS011;5095;49.796;9.934;2023-07-28T00:26:03;4.20;;;2.23;;
10110;SDS011;5095;49.796;9.934;2023-07-28T00:28:29;4.10;;;2.43;;
10110;SDS011;5095;49.796;9.934;2023-07-28T00:31:01;3.07;;;2.10;;
10110;SDS011;5095;49.796;9.934;2023-07-28T00:33:27;2.87;;;2.43;;
10110;SDS011;5095;49.796;9.934;2023-07-28T00:35:53;2.53;;;2.20;;
10110;SDS011;5095;49.796;9.934;2023-07-28T00:38:19;3.03;;;2.20;;
10110;SDS011;5095;49.796;9.934;2023-07-28T00:40:45;3.63;;;2.30;;
10110;SDS011;5095;49.796;9.934;2023-07-28T00:43:11;3.80;;;2.33;;
10110;SDS011;5095;49.796;9.934;2023-07-28T00:45:37;4.43;;;2.93;;
10110;SDS011;5095;49.796;9.934;2023-07-28T00:48:04;4.43;;;2.90;;
10110;SDS011;5095;49.796;9.934;2023-07-28T00:50:36;3.30;;;2.57;;
10110;SDS011;5095;49.796;9.934;2023-07-28T00:53:02;3.77;;;2.50;;
10110;SDS011;5095;49.796;9.934;2023-07-28T00:55:28;3.20;;;2.47;;
10110;SDS011;5095;49.796;9.934;2023-07-28T00:57:54;3.03;;;2.40;;
10110;SDS011;5095;49.796;9.934;2023-07-28T01:00:20;4.13;;;2.50;;
10110;SDS011;5095;49.796;9.934;2023-07-28T01:02:46;5.03;;;2.47;;
10110;SDS011;5095;49.796;9.934;2023-07-28T01:05:13;5.20;;;2.30;;
10110;SDS011;5095;49.796;9.934;2023-07-28T01:08:22;4.20;;;2.37;;
10110;SDS011;5095;49.796;9.934;2023-07-28T01:10:30;3.83;;;2.47;;
10110;SDS011;5095;49.796;9.934;2023-07-28T01:12:57;3.00;;;2.30;;
10110;SDS011;5095;49.796;9.934;2023-07-28T01:15:23;2.43;;;2.23;;
10110;SDS011;5095;49.796;9.934;2023-07-28T01:17:50;3.33;;;2.20;;
10110;SDS011;5095;49.796;9.934;2023-07-28T01:20:16;4.33;;;2.17;;
10110;SDS011;5095;49.796;9.934;2023-07-28T01:22:47;4.00;;;2.37;;
10110;SDS011;5095;49.796;9.934;2023-07-28T01:27:40;5.40;;;2.93;;
10110;SDS011;5095;49.796;9.934;2023-07-28T01:30:07;3.27;;;2.37;;
10110;SDS011;5095;49.796;9.934;2023-07-28T01:32:34;3.40;;;2.40;;
10110;SDS011;5095;49.796;9.934;2023-07-28T01:35:01;3.13;;;2.30;;
10110;SDS011;5095;49.796;9.934;2023-07-28T01:37:28;2.67;;;2.27;;
10110;SDS011;5095;49.796;9.934;2023-07-28T01:39:54;2.67;;;2.30;;
10110;SDS011;5095;49.796;9.934;2023-07-28T01:42:20;3.10;;;2.20;;
10110;SDS011;5095;49.796;9.934;2023-07-28T01:44:46;5.50;;;2.17;;
10110;SDS011;5095;49.796;9.934;2023-07-28T01:47:12;3.60;;;2.27;;
10110;SDS011;5095;49.796;9.934;2023-07-28T01:49:39;4.40;;;2.40;;
10110;SDS011;5095;49.796;9.934;2023-07-28T01:52:05;4.10;;;2.60;;
10110;SDS011;5095;49.796;9.934;2023-07-28T01:54:31;2.43;;;2.20;;
10110;SDS011;5095;49.796;9.934;2023-07-28T01:56:57;3.33;;;2.30;;
10110;SDS011;5095;49.796;9.934;2023-07-28T01:59:23;4.03;;;2.10;;
10110;SDS011;5095;49.796;9.934;2023-07-28T02:01:49;3.00;;;1.93;;
10110;SDS011;5095;49.796;9.934;2023-07-28T02:04:15;5.27;;;2.33;;
10110;SDS011;5095;49.796;9.934;2023-07-28T02:06:41;3.10;;;2.47;;
10110;SDS011;5095;49.796;9.934;2023-07-28T02:09:07;4.20;;;2.60;;
10110;SDS011;5095;49.796;9.934;2023-07-28T02:11:33;2.70;;;2.27;;
10110;SDS011;5095;49.796;9.934;2023-07-28T02:13:59;3.17;;;1.93;;
10110;SDS011;5095;49.796;9.934;2023-07-28T02:16:25;2.77;;;2.10;;
10110;SDS011;5095;49.796;9.934;2023-07-28T02:18:55;2.53;;;1.80;;
10110;SDS011;5095;49.796;9.934;2023-07-28T02:21:21;2.30;;;1.53;;
10110;SDS011;5095;49.796;9.934;2023-07-28T02:23:48;2.73;;;1.80;;
10110;SDS011;5095;49.796;9.934;2023-07-28T02:26:14;3.67;;;2.00;;
10110;SDS011;5095;49.796;9.934;2023-07-28T02:28:40;2.00;;;1.77;;
10110;SDS011;5095;49.796;9.934;2023-07-28T02:31:06;2.30;;;1.90;;
10110;SDS011;5095;49.796;9.934;2023-07-28T02:33:32;4.55;;;1.85;;
10110;SDS011;5095;49.796;9.934;2023-07-28T02:36:01;3.10;;;2.23;;
10110;SDS011;5095;49.796;9.934;2023-07-28T02:38:27;2.17;;;1.50;;
10110;SDS011;5095;49.796;9.934;2023-07-28T02:40:53;4.40;;;1.93;;
10110;SDS011;5095;49.796;9.934;2023-07-28T02:43:19;2.33;;;1.70;;
10110;SDS011;5095;49.796;9.934;2023-07-28T02:45:53;2.80;;;2.10;;
10110;SDS011;5095;49.796;9.934;2023-07-28T02:48:19;2.57;;;1.80;;
10110;SDS011;5095;49.796;9.934;2023-07-28T02:50:49;2.97;;;1.83;;
10110;SDS011;5095;49.796;9.934;2023-07-28T02:53:16;2.17;;;1.70;;
10110;SDS011;5095;49.796;9.934;2023-07-28T02:55:45;2.13;;;1.60;;
10110;SDS011;5095;49.796;9.934;2023-07-28T02:58:11;2.60;;;1.80;;
10110;SDS011;5095;49.796;9.934;2023-07-28T03:00:41;1.90;;;1.70;;
10110;SDS011;5095;49.796;9.934;2023-07-28T03:03:08;3.33;;;1.87;;
10110;SDS011;5095;49.796;9.934;2023-07-28T03:05:37;3.47;;;1.70;;
10110;SDS011;5095;49.796;9.934;2023-07-28T03:08:04;2.50;;;1.60;;
10110;SDS011;5095;49.796;9.934;2023-07-28T03:10:30;2.63;;;1.80;;
10110;SDS011;5095;49.796;9.934;2023-07-28T03:12:56;2.10;;;1.57;;
10110;SDS011;5095;49.796;9.934;2023-07-28T03:15:22;1.40;;;1.20;;
10110;SDS011;5095;49.796;9.934;2023-07-28T03:17:49;2.33;;;1.63;;
10110;SDS011;5095;49.796;9.934;2023-07-28T03:20:15;2.77;;;1.70;;
10110;SDS011;5095;49.796;9.934;2023-07-28T03:22:41;2.10;;;1.40;;
10110;SDS011;5095;49.796;9.934;2023-07-28T03:25:07;2.43;;;1.60;;
10110;SDS011;5095;49.796;9.934;2023-07-28T03:27:33;3.50;;;1.70;;
10110;SDS011;5095;49.796;9.934;2023-07-28T03:29:59;3.23;;;1.70;;
10110;SDS011;5095;49.796;9.934;2023-07-28T03:32:25;2.43;;;1.70;;
10110;SDS011;5095;49.796;9.934;2023-07-28T03:34:51;2.00;;;1.50;;
10110;SDS011;5095;49.796;9.934;2023-07-28T03:37:18;3.00;;;1.40;;
10110;SDS011;5095;49.796;9.934;2023-07-28T03:39:44;2.70;;;1.60;;
10110;SDS011;5095;49.796;9.934;2023-07-28T03:42:10;1.50;;;1.40;;
10110;SDS011;5095;49.796;9.934;2023-07-28T03:44:36;2.37;;;1.40;;
10110;SDS011;5095;49.796;9.934;2023-07-28T03:47:03;3.13;;;1.67;;
10110;SDS011;5095;49.796;9.934;2023-07-28T03:49:29;1.30;;;1.20;;
10110;SDS011;5095;49.796;9.934;2023-07-28T03:51:55;2.30;;;1.60;;
10110;SDS011;5095;49.796;9.934;2023-07-28T03:54:22;1.87;;;1.47;;
10110;SDS011;5095;49.796;9.934;2023-07-28T03:56:48;3.50;;;1.53;;
10110;SDS011;5095;49.796;9.934;2023-07-28T03:59:14;2.50;;;1.43;;
10110;SDS011;5095;49.796;9.934;2023-07-28T04:01:40;1.87;;;1.10;;
10110;SDS011;5095;49.796;9.934;2023-07-28T04:04:06;1.13;;;1.03;;
10110;SDS011;5095;49.796;9.934;2023-07-28T04:06:43;2.93;;;1.43;;
10110;SDS011;5095;49.796;9.934;2023-07-28T04:09:11;1.93;;;1.07;;
10110;SDS011;5095;49.796;9.934;2023-07-28T04:11:37;1.30;;;1.20;;
10110;SDS011;5095;49.796;9.934;2023-07-28T04:14:03;1.40;;;1.27;;
10110;SDS011;5095;49.796;9.934;2023-07-28T04:16:30;1.87;;;1.20;;
10110;SDS011;5095;49.796;9.934;2023-07-28T04:18:56;1.93;;;1.20;;
10110;SDS011;5095;49.796;9.934;2023-07-28T04:21:22;1.33;;;1.00;;
10110;SDS011;5095;49.796;9.934;2023-07-28T04:23:48;1.10;;;0.90;;
10110;SDS011;5095;49.796;9.934;2023-07-28T04:26:15;2.47;;;1.03;;
10110;SDS011;5095;49.796;9.934;2023-07-28T04:28:41;1.23;;;1.00;;
10110;SDS011;5095;49.796;9.934;2023-07-28T04:31:07;2.27;;;1.20;;
10110;SDS011;5095;49.796;9.934;2023-07-28T04:33:33;1.27;;;0.97;;
10110;SDS011;5095;49.796;9.934;2023-07-28T04:36:02;1.63;;;0.90;;
10110;SDS011;5095;49.796;9.934;2023-07-28T04:38:28;2.10;;;1.07;;
10110;SDS011;5095;49.796;9.934;2023-07-28T04:40:54;1.10;;;1.00;;
10110;SDS011;5095;49.796;9.934;2023-07-28T04:43:20;1.30;;;1.20;;
10110;SDS011;5095;49.796;9.934;2023-07-28T04:45:49;1.00;;;0.90;;
10110;SDS011;5095;49.796;9.934;2023-07-28T04:48:15;2.17;;;1.00;;
10110;SDS011;5095;49.796;9.934;2023-07-28T04:50:41;3.10;;;1.23;;
10110;SDS011;5095;49.796;9.934;2023-07-28T04:53:07;2.13;;;0.90;;
10110;SDS011;5095;49.796;9.934;2023-07-28T04:55:33;1.20;;;0.80;;
10110;SDS011;5095;49.796;9.934;2023-07-28T04:57:59;1.97;;;0.93;;
10110;SDS011;5095;49.796;9.934;2023-07-28T05:00:25;2.07;;;1.00;;
10110;SDS011;5095;49.796;9.934;2023-07-28T05:02:51;2.50;;;1.00;;
10110;SDS011;5095;49.796;9.934;2023-07-28T05:05:17;1.40;;;1.10;;
10110;SDS011;5095;49.796;9.934;2023-07-28T05:07:43;4.47;;;1.30;;
10110;SDS011;5095;49.796;9.934;2023-07-28T05:10:10;2.00;;;1.00;;
10110;SDS011;5095;49.796;9.934;2023-07-28T05:12:36;2.60;;;1.27;;
10110;SDS011;5095;49.796;9.934;2023-07-28T05:15:02;3.00;;;1.43;;
10110;SDS011;5095;49.796;9.934;2023-07-28T05:17:29;0.90;;;0.80;;
10110;SDS011;5095;49.796;9.934;2023-07-28T05:19:55;1.23;;;0.70;;
10110;SDS011;5095;49.796;9.934;2023-07-28T05:22:21;1.37;;;0.87;;
10110;SDS011;5095;49.796;9.934;2023-07-28T05:24:47;0.90;;;0.80;;
10110;SDS011;5095;49.796;9.934;2023-07-28T05:27:13;2.07;;;1.07;;
10110;SDS011;5095;49.796;9.934;2023-07-28T05:29:39;2.00;;;1.00;;
10110;SDS011;5095;49.796;9.934;2023-07-28T05:32:05;1.50;;;0.90;;
10110;SDS011;5095;49.796;9.934;2023-07-28T05:34:32;2.47;;;1.10;;
10110;SDS011;5095;49.796;9.934;2023-07-28T05:36:58;4.13;;;1.10;;
10110;SDS011;5095;49.796;9.934;2023-07-28T05:39:24;1.13;;;0.80;;
10110;SDS011;5095;49.796;9.934;2023-07-28T05:41:50;1.23;;;1.00;;
10110;SDS011;5095;49.796;9.934;2023-07-28T05:44:16;1.43;;;1.13;;
10110;SDS011;5095;49.796;9.934;2023-07-28T05:46:42;2.93;;;1.13;;
10110;SDS011;5095;49.796;9.934;2023-07-28T05:49:09;1.37;;;0.93;;
10110;SDS011;5095;49.796;9.934;2023-07-28T05:51:35;3.23;;;1.20;;
10110;SDS011;5095;49.796;9.934;2023-07-28T05:54:01;1.83;;;1.20;;
10110;SDS011;5095;49.796;9.934;2023-07-28T05:56:29;3.63;;;1.17;;
10110;SDS011;5095;49.796;9.934;2023-07-28T05:58:55;1.33;;;1.03;;
10110;SDS011;5095;49.796;9.934;2023-07-28T06:01:22;1.60;;;1.03;;
10110;SDS011;5095;49.796;9.934;2023-07-28T06:03:50;2.00;;;0.93;;
10110;SDS011;5095;49.796;9.934;2023-07-28T06:06:17;1.00;;;0.90;;
10110;SDS011;5095;49.796;9.934;2023-07-28T06:08:43;1.13;;;0.90;;
10110;SDS011;5095;49.796;9.934;2023-07-28T06:11:09;3.00;;;1.10;;
10110;SDS011;5095;49.796;9.934;2023-07-28T06:13:35;1.93;;;0.90;;
10110;SDS011;5095;49.796;9.934;2023-07-28T06:16:01;1.03;;;0.97;;
10110;SDS011;5095;49.796;9.934;2023-07-28T06:18:28;1.33;;;1.17;;
10110;SDS011;5095;49.796;9.934;2023-07-28T06:20:54;4.40;;;1.67;;
10110;SDS011;5095;49.796;9.934;2023-07-28T06:23:20;1.73;;;1.40;;
10110;SDS011;5095;49.796;9.934;2023-07-28T06:25:46;2.07;;;1.10;;
10110;SDS011;5095;49.796;9.934;2023-07-28T06:28:12;1.53;;;1.00;;
10110;SDS011;5095;49.796;9.934;2023-07-28T06:30:38;1.20;;;0.87;;
10110;SDS011;5095;49.796;9.934;2023-07-28T06:33:11;1.00;;;0.90;;
10110;SDS011;5095;49.796;9.934;2023-07-28T06:35:37;1.27;;;1.10;;
10110;SDS011;5095;49.796;9.934;2023-07-28T06:38:03;1.60;;;1.13;;
10110;SDS011;5095;49.796;9.934;2023-07-28T06:40:29;1.13;;;0.97;;
10110;SDS011;5095;49.796;9.934;2023-07-28T06:42:56;0.93;;;0.90;;
10110;SDS011;5095;49.796;9.934;2023-07-28T06:45:22;3.17;;;1.70;;
10110;SDS011;5095;49.796;9.934;2023-07-28T06:47:48;1.93;;;1.23;;
10110;SDS011;5095;49.796;9.934;2023-07-28T06:50:14;1.30;;;1.03;;
10110;SDS011;5095;49.796;9.934;2023-07-28T06:52:40;2.17;;;1.37;;
10110;SDS011;5095;49.796;9.934;2023-07-28T06:55:07;1.73;;;1.30;;
10110;SDS011;5095;49.796;9.934;2023-07-28T06:57:33;2.00;;;1.20;;
10110;SDS011;5095;49.796;9.934;2023-07-28T07:00:00;1.23;;;0.90;;
10110;SDS011;5095;49.796;9.934;2023-07-28T07:02:26;1.13;;;0.90;;
10110;SDS011;5095;49.796;9.934;2023-07-28T07:04:52;3.67;;;1.73;;
10110;SDS011;5095;49.796;9.934;2023-07-28T07:07:18;1.97;;;1.30;;
10110;SDS011;5095;49.796;9.934;2023-07-28T07:09:44;2.37;;;1.40;;
10110;SDS011;5095;49.796;9.934;2023-07-28T07:12:10;1.20;;;1.03;;
10110;SDS011;5095;49.796;9.934;2023-07-28T07:14:36;0.80;;;0.80;;
10110;SDS011;5095;49.796;9.934;2023-07-28T07:17:02;0.90;;;0.90;;
10110;SDS011;5095;49.796;9.934;2023-07-28T07:19:28;1.30;;;1.00;;
10110;SDS011;5095;49.796;9.934;2023-07-28T07:21:55;0.90;;;0.90;;
10110;SDS011;5095;49.796;9.934;2023-07-28T07:24:21;1.03;;;0.90;;
10110;SDS011;5095;49.796;9.934;2023-07-28T07:26:47;1.23;;;1.03;;
10110;SDS011;5095;49.796;9.934;2023-07-28T07:29:13;2.20;;;1.23;;
10110;SDS011;5095;49.796;9.934;2023-07-28T07:31:39;2.13;;;1.50;;
10110;SDS011;5095;49.796;9.934;2023-07-28T07:34:06;2.53;;;1.33;;
10110;SDS011;5095;49.796;9.934;2023-07-28T07:36:32;3.10;;;2.40;;
10110;SDS011;5095;49.796;9.934;2023-07-28T07:38:58;4.73;;;3.53;;
10110;SDS011;5095;49.796;9.934;2023-07-28T07:41:24;8.07;;;3.37;;
10110;SDS011;5095;49.796;9.934;2023-07-28T07:43:52;1.90;;;1.30;;
10110;SDS011;5095;49.796;9.934;2023-07-28T07:46:18;1.37;;;1.00;;
10110;SDS011;5095;49.796;9.934;2023-07-28T07:48:44;1.50;;;1.20;;
10110;SDS011;5095;49.796;9.934;2023-07-28T07:51:11;2.77;;;1.10;;
10110;SDS011;5095;49.796;9.934;2023-07-28T07:53:37;3.23;;;1.20;;
10110;SDS011;5095;49.796;9.934;2023-07-28T07:56:03;2.80;;;1.30;;
10110;SDS011;5095;49.796;9.934;2023-07-28T07:58:30;3.13;;;1.20;;
10110;SDS011;5095;49.796;9.934;2023-07-28T08:00:56;1.33;;;1.10;;
10110;SDS011;5095;49.796;9.934;2023-07-28T08:03:22;1.93;;;1.40;;
10110;SDS011;5095;49.796;9.934;2023-07-28T08:05:49;1.00;;;0.90;;
10110;SDS011;5095;49.796;9.934;2023-07-28T08:08:15;1.40;;;1.10;;
10110;SDS011;5095;49.796;9.934;2023-07-28T08:10:42;1.67;;;1.07;;
10110;SDS011;5095;49.796;9.934;2023-07-28T08:13:09;1.20;;;1.00;;
10110;SDS011;5095;49.796;9.934;2023-07-28T08:15:35;2.07;;;1.03;;
10110;SDS011;5095;49.796;9.934;2023-07-28T08:18:01;4.30;;;1.10;;
10110;SDS011;5095;49.796;9.934;2023-07-28T08:20:27;2.87;;;0.90;;
10110;SDS011;5095;49.796;9.934;2023-07-28T08:22:53;2.33;;;0.97;;
10110;SDS011;5095;49.796;9.934;2023-07-28T08:25:20;2.03;;;1.00;;
10110;SDS011;5095;49.796;9.934;2023-07-28T08:27:47;1.10;;;1.00;;
10110;SDS011;5095;49.796;9.934;2023-07-28T08:30:14;1.23;;;0.73;;
10110;SDS011;5095;49.796;9.934;2023-07-28T08:32:40;0.80;;;0.80;;
10110;SDS011;5095;49.796;9.934;2023-07-28T08:35:06;0.97;;;0.87;;
10110;SDS011;5095;49.796;9.934;2023-07-28T08:37:33;1.67;;;1.20;;
10110;SDS011;5095;49.796;9.934;2023-07-28T08:39:59;1.20;;;1.10;;
10110;SDS011;5095;49.796;9.934;2023-07-28T08:42:25;3.40;;;0.93;;
10110;SDS011;5095;49.796;9.934;2023-07-28T08:44:51;2.23;;;1.37;;
10110;SDS011;5095;49.796;9.934;2023-07-28T08:47:17;2.23;;;1.30;;
10110;SDS011;5095;49.796;9.934;2023-07-28T08:49:44;1.60;;;1.40;;
10110;SDS011;5095;49.796;9.934;2023-07-28T08:52:10;1.50;;;1.40;;
10110;SDS011;5095;49.796;9.934;2023-07-28T08:54:37;1.73;;;1.30;;
10110;SDS011;5095;49.796;9.934;2023-07-28T08:57:05;1.97;;;1.07;;
10110;SDS011;5095;49.796;9.934;2023-07-28T08:59:31;1.53;;;1.00;;
10110;SDS011;5095;49.796;9.934;2023-07-28T09:01:57;2.47;;;1.37;;
10110;SDS011;5095;49.796;9.934;2023-07-28T09:04:24;2.07;;;1.50;;
10110;SDS011;5095;49.796;9.934;2023-07-28T09:06:50;1.13;;;1.07;;
10110;SDS011;5095;49.796;9.934;2023-07-28T09:09:18;3.03;;;1.43;;
10110;SDS011;5095;49.796;9.934;2023-07-28T09:11:53;3.33;;;1.57;;
10110;SDS011;5095;49.796;9.934;2023-07-28T09:14:20;2.90;;;1.60;;
10110;SDS011;5095;49.796;9.934;2023-07-28T09:16:46;2.60;;;2.00;;
10110;SDS011;5095;49.796;9.934;2023-07-28T09:19:13;2.40;;;1.77;;
10110;SDS011;5095;49.796;9.934;2023-07-28T09:21:40;1.30;;;1.13;;
10110;SDS011;5095;49.796;9.934;2023-07-28T09:24:08;2.30;;;1.40;;
10110;SDS011;5095;49.796;9.934;2023-07-28T09:26:39;4.60;;;1.40;;
10110;SDS011;5095;49.796;9.934;2023-07-28T09:29:15;1.93;;;1.50;;
10110;SDS011;5095;49.796;9.934;2023-07-28T09:31:46;1.80;;;1.43;;
10110;SDS011;5095;49.796;9.934;2023-07-28T09:34:12;0.97;;;0.97;;
10110;SDS011;5095;49.796;9.934;2023-07-28T09:36:38;3.33;;;1.80;;
10110;SDS011;5095;49.796;9.934;2023-07-28T09:39:05;1.87;;;1.30;;
10110;SDS011;5095;49.796;9.934;2023-07-28T09:41:37;2.10;;;1.00;;
10110;SDS011;5095;49.796;9.934;2023-07-28T09:44:04;2.97;;;1.70;;
10110;SDS011;5095;49.796;9.934;2023-07-28T09:46:32;2.73;;;1.43;;
10110;SDS011;5095;49.796;9.934;2023-07-28T09:49:04;1.60;;;1.40;;
10110;SDS011;5095;49.796;9.934;2023-07-28T09:51:31;3.40;;;1.50;;
10110;SDS011;5095;49.796;9.934;2023-07-28T09:54:11;3.53;;;2.00;;
10110;SDS011;5095;49.796;9.934;2023-07-28T09:56:38;2.70;;;1.70;;
10110;SDS011;5095;49.796;9.934;2023-07-28T09:59:10;3.00;;;1.70;;
10110;SDS011;5095;49.796;9.934;2023-07-28T10:01:37;1.57;;;1.30;;
10110;SDS011;5095;49.796;9.934;2023-07-28T10:04:04;1.70;;;1.60;;
10110;SDS011;5095;49.796;9.934;2023-07-28T10:06:30;1.80;;;1.37;;
10110;SDS011;5095;49.796;9.934;2023-07-28T10:08:56;3.60;;;2.60;;
10110;SDS011;5095;49.796;9.934;2023-07-28T10:11:22;4.13;;;2.23;;
10110;SDS011;5095;49.796;9.934;2023-07-28T10:13:50;1.43;;;1.33;;
10110;SDS011;5095;49.796;9.934;2023-07-28T10:16:17;2.73;;;1.70;;
10110;SDS011;5095;49.796;9.934;2023-07-28T10:19:01;1.47;;;1.37;;
10110;SDS011;5095;49.796;9.934;2023-07-28T10:21:28;1.93;;;1.73;;
10110;SDS011;5095;49.796;9.934;2023-07-28T10:23:55;2.50;;;1.53;;
10110;SDS011;5095;49.796;9.934;2023-07-28T10:26:38;2.40;;;1.70;;
10110;SDS011;5095;49.796;9.934;2023-07-28T10:29:15;4.30;;;2.00;;
10110;SDS011;5095;49.796;9.934;2023-07-28T10:31:54;2.67;;;1.67;;
10110;SDS011;5095;49.796;9.934;2023-07-28T10:34:23;1.80;;;1.70;;
10110;SDS011;5095;49.796;9.934;2023-07-28T10:36:56;1.83;;;1.30;;
10110;SDS011;5095;49.796;9.934;2023-07-28T10:39:23;1.73;;;1.30;;
10110;SDS011;5095;49.796;9.934;2023-07-28T10:44:25;1.67;;;1.47;;
10110;SDS011;5095;49.796;9.934;2023-07-28T10:46:51;1.57;;;1.47;;
10110;SDS011;5095;49.796;9.934;2023-07-28T10:49:17;2.58;;;1.60;;
10110;SDS011;5095;49.796;9.934;2023-07-28T10:51:44;2.73;;;2.03;;
10110;SDS011;5095;49.796;9.934;2023-07-28T10:54:11;6.67;;;2.60;;
10110;SDS011;5095;49.796;9.934;2023-07-28T10:56:41;3.40;;;1.57;;
10110;SDS011;5095;49.796;9.934;2023-07-28T10:59:08;1.40;;;1.30;;
10110;SDS011;5095;49.796;9.934;2023-07-28T11:01:36;1.67;;;1.37;;
10110;SDS011;5095;49.796;9.934;2023-07-28T11:04:16;1.77;;;1.33;;
10110;SDS011;5095;49.796;9.934;2023-07-28T11:06:43;1.87;;;1.20;;
10110;SDS011;5095;49.796;9.934;2023-07-28T11:09:09;2.07;;;1.40;;
10110;SDS011;5095;49.796;9.934;2023-07-28T11:11:36;2.73;;;1.50;;
10110;SDS011;5095;49.796;9.934;2023-07-28T11:14:06;2.40;;;1.57;;
10110;SDS011;5095;49.796;9.934;2023-07-28T11:16:33;1.60;;;1.20;;
10110;SDS011;5095;49.796;9.934;2023-07-28T11:19:03;1.58;;;1.48;;
10110;SDS011;5095;49.796;9.934;2023-07-28T11:21:29;1.87;;;1.40;;
10110;SDS011;5095;49.796;9.934;2023-07-28T11:23:56;1.77;;;1.33;;
10110;SDS011;5095;49.796;9.934;2023-07-28T11:26:22;1.47;;;1.33;;
10110;SDS011;5095;49.796;9.934;2023-07-28T11:28:48;2.20;;;1.63;;
10110;SDS011;5095;49.796;9.934;2023-07-28T11:31:14;1.93;;;1.20;;
10110;SDS011;5095;49.796;9.934;2023-07-28T11:33:40;1.10;;;1.00;;
10110;SDS011;5095;49.796;9.934;2023-07-28T11:36:06;2.53;;;1.50;;
10110;SDS011;5095;49.796;9.934;2023-07-28T11:38:33;1.30;;;1.13;;
10110;SDS011;5095;49.796;9.934;2023-07-28T11:41:00;1.43;;;1.33;;
10110;SDS011;5095;49.796;9.934;2023-07-28T11:43:26;3.47;;;1.30;;
10110;SDS011;5095;49.796;9.934;2023-07-28T11:45:52;1.20;;;1.10;;
10110;SDS011;5095;49.796;9.934;2023-07-28T11:48:18;1.23;;;1.13;;
10110;SDS011;5095;49.796;9.934;2023-07-28T11:50:44;1.50;;;1.38;;
10110;SDS011;5095;49.796;9.934;2023-07-28T11:53:10;1.58;;;1.10;;
10110;SDS011;5095;49.796;9.934;2023-07-28T11:55:37;2.10;;;1.20;;
10110;SDS011;5095;49.796;9.934;2023-07-28T11:58:07;2.38;;;1.30;;
10110;SDS011;5095;49.796;9.934;2023-07-28T12:00:34;1.52;;;1.17;;
10110;SDS011;5095;49.796;9.934;2023-07-28T12:03:01;1.35;;;1.20;;
10110;SDS011;5095;49.796;9.934;2023-07-28T12:05:28;1.45;;;1.25;;
10110;SDS011;5095;49.796;9.934;2023-07-28T12:07:55;1.70;;;0.98;;
10110;SDS011;5095;49.796;9.934;2023-07-28T12:10:21;1.50;;;0.95;;
10110;SDS011;5095;49.796;9.934;2023-07-28T12:12:47;1.98;;;1.10;;
10110;SDS011;5095;49.796;9.934;2023-07-28T12:20:32;1.05;;;0.90;;
10110;SDS011;5095;49.796;9.934;2023-07-28T12:22:58;2.65;;;1.90;;
10110;SDS011;5095;49.796;9.934;2023-07-28T12:25:24;1.20;;;1.00;;
10110;SDS011;5095;49.796;9.934;2023-07-28T12:27:50;2.10;;;1.30;;
10110;SDS011;5095;49.796;9.934;2023-07-28T12:30:17;2.50;;;1.17;;
10110;SDS011;5095;49.796;9.934;2023-07-28T12:32:43;1.08;;;0.90;;
10110;SDS011;5095;49.796;9.934;2023-07-28T12:35:09;1.30;;;0.95;;
10110;SDS011;5095;49.796;9.934;2023-07-28T12:37:35;1.02;;;1.00;;
10110;SDS011;5095;49.796;9.934;2023-07-28T12:40:02;8.48;;;6.57;;
10110;SDS011;5095;49.796;9.934;2023-07-28T12:42:30;2.70;;;2.35;;
10110;SDS011;5095;49.796;9.934;2023-07-28T12:44:56;1.23;;;1.13;;
10110;SDS011;5095;49.796;9.934;2023-07-28T12:47:22;0.80;;;0.80;;
10110;SDS011;5095;49.796;9.934;2023-07-28T12:49:48;1.48;;;1.02;;
10110;SDS011;5095;49.796;9.934;2023-07-28T12:52:14;3.22;;;1.05;;
10110;SDS011;5095;49.796;9.934;2023-07-28T12:54:41;0.90;;;0.80;;
10110;SDS011;5095;49.796;9.934;2023-07-28T12:57:08;1.13;;;0.80;;
10110;SDS011;5095;49.796;9.934;2023-07-28T12:59:35;0.80;;;0.80;;
10110;SDS011;5095;49.796;9.934;2023-07-28T13:02:01;1.40;;;0.95;;
10110;SDS011;5095;49.796;9.934;2023-07-28T13:04:27;1.27;;;0.88;;
10110;SDS011;5095;49.796;9.934;2023-07-28T13:06:53;2.47;;;1.00;;
10110;SDS011;5095;49.796;9.934;2023-07-28T13:09:20;1.77;;;1.23;;
10110;SDS011;5095;49.796;9.934;2023-07-28T13:11:46;2.45;;;1.02;;
10110;SDS011;5095;49.796;9.934;2023-07-28T13:14:12;2.08;;;1.15;;
10110;SDS011;5095;49.796;9.934;2023-07-28T13:16:38;1.75;;;0.77;;
10110;SDS011;5095;49.796;9.934;2023-07-28T13:19:04;0.70;;;0.70;;
10110;SDS011;5095;49.796;9.934;2023-07-28T13:21:31;1.00;;;0.80;;
10110;SDS011;5095;49.796;9.934;2023-07-28T13:23:58;3.72;;;0.93;;
10110;SDS011;5095;49.796;9.934;2023-07-28T13:26:24;1.67;;;0.90;;
10110;SDS011;5095;49.796;9.934;2023-07-28T13:28:53;1.65;;;1.00;;
10110;SDS011;5095;49.796;9.934;2023-07-28T13:31:21;2.28;;;0.85;;
10110;SDS011;5095;49.796;9.934;2023-07-28T13:33:47;1.33;;;0.93;;
10110;SDS011;5095;49.796;9.934;2023-07-28T13:36:13;3.65;;;3.33;;
10110;SDS011;5095;49.796;9.934;2023-07-28T13:38:40;1.65;;;1.17;;
10110;SDS011;5095;49.796;9.934;2023-07-28T13:41:06;5.00;;;1.52;;
10110;SDS011;5095;49.796;9.934;2023-07-28T13:43:32;2.88;;;1.60;;
10110;SDS011;5095;49.796;9.934;2023-07-28T13:46:03;2.25;;;1.75;;
10110;SDS011;5095;49.796;9.934;2023-07-28T13:48:30;1.92;;;1.20;;
10110;SDS011;5095;49.796;9.934;2023-07-28T13:50:56;1.20;;;1.10;;
10110;SDS011;5095;49.796;9.934;2023-07-28T13:53:23;1.33;;;0.60;;
10110;SDS011;5095;49.796;9.934;2023-07-28T13:55:49;1.55;;;1.42;;
10110;SDS011;5095;49.796;9.934;2023-07-28T13:58:15;1.10;;;1.00;;
10110;SDS011;5095;49.796;9.934;2023-07-28T14:00:41;1.60;;;1.20;;
10110;SDS011;5095;49.796;9.934;2023-07-28T14:03:07;1.35;;;1.15;;
10110;SDS011;5095;49.796;9.934;2023-07-28T14:05:36;1.92;;;1.33;;
10110;SDS011;5095;49.796;9.934;2023-07-28T14:08:02;2.25;;;1.30;;
10110;SDS011;5095;49.796;9.934;2023-07-28T14:10:28;1.20;;;1.10;;
10110;SDS011;5095;49.796;9.934;2023-07-28T14:12:54;2.67;;;1.05;;
10110;SDS011;5095;49.796;9.934;2023-07-28T14:15:20;1.67;;;1.20;;
10110;SDS011;5095;49.796;9.934;2023-07-28T14:17:49;1.70;;;1.30;;
10110;SDS011;5095;49.796;9.934;2023-07-28T14:20:15;4.07;;;1.30;;
10110;SDS011;5095;49.796;9.934;2023-07-28T14:22:41;1.13;;;1.00;;
10110;SDS011;5095;49.796;9.934;2023-07-28T14:25:07;1.20;;;1.08;;
10110;SDS011;5095;49.796;9.934;2023-07-28T14:27:34;4.90;;;1.60;;
10110;SDS011;5095;49.796;9.934;2023-07-28T14:30:00;1.58;;;1.30;;
10110;SDS011;5095;49.796;9.934;2023-07-28T14:32:26;2.72;;;1.30;;
10110;SDS011;5095;49.796;9.934;2023-07-28T14:34:52;2.20;;;1.30;;
10110;SDS011;5095;49.796;9.934;2023-07-28T14:37:18;1.10;;;1.00;;
10110;SDS011;5095;49.796;9.934;2023-07-28T14:39:44;3.03;;;1.42;;
10110;SDS011;5095;49.796;9.934;2023-07-28T14:42:10;5.88;;;2.35;;
10110;SDS011;5095;49.796;9.934;2023-07-28T14:44:36;2.78;;;1.05;;
10110;SDS011;5095;49.796;9.934;2023-07-28T14:47:02;1.63;;;1.25;;
10110;SDS011;5095;49.796;9.934;2023-07-28T14:49:29;4.72;;;1.60;;
10110;SDS011;5095;49.796;9.934;2023-07-28T14:51:55;2.10;;;1.35;;
10110;SDS011;5095;49.796;9.934;2023-07-28T14:54:21;1.58;;;1.20;;
10110;SDS011;5095;49.796;9.934;2023-07-28T14:56:47;2.33;;;1.48;;
10110;SDS011;5095;49.796;9.934;2023-07-28T14:59:13;2.00;;;1.30;;
10110;SDS011;5095;49.796;9.934;2023-07-28T15:01:40;1.88;;;1.35;;
10110;SDS011;5095;49.796;9.934;2023-07-28T15:04:06;1.33;;;1.20;;
10110;SDS011;5095;49.796;9.934;2023-07-28T15:06:32;3.63;;;2.80;;
10110;SDS011;5095;49.796;9.934;2023-07-28T15:08:58;2.08;;;1.30;;